Time;durP1;ratioP1;P1;durP2;ratioP2;P2;SDS_P1;SDS_P2;PMS_P1;PMS_P2;Temp;Humidity;BMP_temperature;BMP_pressure;BME280_temperature;BME280_humidity;BME280_pressure;Samples;Min_cycle;Max_cycle;Signal;HPM_P1;HPM_P2
2021/12/05 00:24:01;;;;;;;13.18;4.05;;;4.80;99.90;;;;;;5015143;28;20061;-72
2021/12/05 00:26:29;;;;;;;10.05;4.10;;;4.80;99.90;;;;;;5015002;28;20054;-72
2021/12/05 00:32:02;;;;;;;16.27;5.05;;;4.90;99.90;;;;;;5015053;28;20479;-71
2021/12/05 00:34:59;;;;;;;14.15;4.93;;;4.90;99.90;;;;;;5014874;28;20054;-71
2021/12/05 01:15:07;;;;;;;10.70;3.90;;;4.90;99.90;;;;;;5013902;28;20053;-70
2021/12/05 01:17:54;;;;;;;11.85;4.72;;;4.90;99.90;;;;;;5014139;28;20107;-72
2021/12/05 01:20:21;;;;;;;11.52;4.28;;;4.90;99.90;;;;;;5013715;28;20085;-74
2021/12/05 01:22:58;;;;;;;11.57;4.20;;;4.90;99.90;;;;;;5013817;28;20053;-73
2021/12/05 01:25:42;;;;;;;13.40;4.00;;;4.90;99.90;;;;;;5013711;28;20081;-72
2021/12/05 01:31:08;;;;;;;17.67;4.70;;;4.90;99.90;;;;;;4973099;28;20053;-72
2021/12/05 01:36:38;;;;;;;15.52;4.40;;;4.80;99.90;;;;;;4943548;28;20058;-72
2021/12/05 01:39:26;;;;;;;10.52;4.65;;;4.80;99.90;;;;;;4997170;28;20057;-73
2021/12/05 01:58:11;;;;;;;16.35;5.55;;;4.90;99.90;;;;;;5013492;28;20288;-72
2021/12/05 02:11:45;;;;;;;14.23;6.78;;;5.00;99.90;;;;;;4995033;28;20056;-72
2021/12/05 02:41:16;;;;;;;13.05;5.97;;;4.90;99.90;;;;;;4980329;28;20062;-72
2021/12/05 02:43:46;;;;;;;15.07;6.35;;;4.80;99.90;;;;;;5012928;28;20060;-72
2021/12/05 02:46:14;;;;;;;17.27;6.47;;;4.80;99.90;;;;;;4995417;28;20069;-72
2021/12/05 02:48:42;;;;;;;16.15;6.75;;;4.80;99.90;;;;;;4995570;28;20133;-72
2021/12/05 02:51:24;;;;;;;17.67;6.28;;;4.80;99.90;;;;;;5012813;28;20050;-72
2021/12/05 02:54:04;;;;;;;17.27;7.38;;;4.80;99.90;;;;;;5013076;28;20056;-72
2021/12/05 02:56:32;;;;;;;13.48;6.88;;;4.80;99.90;;;;;;5012592;28;20060;-72
2021/12/05 02:59:06;;;;;;;17.05;6.93;;;4.80;99.90;;;;;;5012857;28;20097;-72
2021/12/05 03:01:39;;;;;;;17.70;7.22;;;4.70;99.90;;;;;;5012258;28;20037;-72
2021/12/05 03:04:06;;;;;;;18.02;7.05;;;4.70;99.90;;;;;;5012447;28;20064;-72
2021/12/05 03:06:33;;;;;;;15.23;7.05;;;4.70;99.90;;;;;;5012371;28;20042;-73
2021/12/05 03:09:05;;;;;;;20.10;8.77;;;4.70;99.90;;;;;;5012648;28;20048;-72
2021/12/05 03:11:32;;;;;;;17.33;8.65;;;4.60;99.90;;;;;;5012461;28;20093;-73
2021/12/05 03:13:58;;;;;;;24.88;8.85;;;4.70;99.90;;;;;;5012718;28;20108;-72
2021/12/05 03:16:25;;;;;;;18.55;7.45;;;4.70;99.90;;;;;;5012347;28;20548;-72
2021/12/05 03:18:51;;;;;;;16.23;7.10;;;4.70;99.90;;;;;;5012575;28;20069;-72
2021/12/05 03:21:17;;;;;;;18.83;7.20;;;4.70;99.90;;;;;;5012212;28;20173;-72
2021/12/05 03:23:46;;;;;;;17.58;7.70;;;4.70;99.90;;;;;;4995506;28;20046;-72
2021/12/05 03:26:18;;;;;;;23.48;7.88;;;4.70;99.90;;;;;;5012349;28;20129;-73
2021/12/05 03:28:44;;;;;;;15.18;8.07;;;4.60;99.90;;;;;;5012567;28;20120;-72
2021/12/05 03:31:11;;;;;;;17.92;7.43;;;4.60;99.90;;;;;;5013840;28;20053;-72
2021/12/05 03:33:38;;;;;;;24.40;8.85;;;4.60;99.90;;;;;;5015842;28;20073;-73
2021/12/05 03:36:06;;;;;;;18.80;7.28;;;4.70;99.90;;;;;;5015960;28;20128;-72
2021/12/05 03:38:33;;;;;;;21.42;7.68;;;4.70;99.90;;;;;;5015665;28;20183;-72
2021/12/05 03:40:59;;;;;;;20.13;8.60;;;4.60;99.90;;;;;;5015785;28;20053;-72
2021/12/05 03:43:25;;;;;;;17.17;8.27;;;4.70;99.90;;;;;;5015614;28;20049;-72
2021/12/05 03:45:54;;;;;;;19.53;7.90;;;4.70;99.90;;;;;;5015827;28;20386;-72
2021/12/05 03:48:23;;;;;;;21.48;8.00;;;4.70;99.90;;;;;;5015564;28;20061;-73
2021/12/05 03:50:49;;;;;;;22.20;9.68;;;4.60;99.90;;;;;;5015705;28;20470;-72
2021/12/05 03:53:17;;;;;;;22.02;9.23;;;4.60;99.90;;;;;;5015428;28;20072;-74
2021/12/05 03:55:46;;;;;;;22.50;9.65;;;4.70;99.90;;;;;;5015691;28;20077;-72
2021/12/05 03:58:12;;;;;;;23.42;8.90;;;4.70;99.90;;;;;;5015562;28;20397;-72
2021/12/05 04:00:41;;;;;;;23.73;9.10;;;4.70;99.90;;;;;;4997796;28;20129;-72
2021/12/05 04:03:12;;;;;;;22.60;9.20;;;4.70;99.90;;;;;;5015010;28;20108;-72
2021/12/05 04:05:38;;;;;;;23.88;8.65;;;4.70;99.90;;;;;;5015164;28;20439;-72
2021/12/05 04:08:08;;;;;;;23.67;8.87;;;4.80;99.90;;;;;;5015521;28;20046;-72
2021/12/05 04:10:36;;;;;;;25.73;11.10;;;4.60;99.90;;;;;;5015086;28;20273;-72
2021/12/05 04:13:02;;;;;;;24.58;10.75;;;4.60;99.90;;;;;;5015243;28;20475;-72
2021/12/05 04:15:28;;;;;;;24.23;10.20;;;4.80;99.90;;;;;;5014945;28;20127;-72
2021/12/05 04:17:54;;;;;;;26.20;10.43;;;4.70;99.90;;;;;;5015424;28;20077;-72
2021/12/05 04:20:21;;;;;;;22.15;10.07;;;4.60;99.90;;;;;;5014842;28;20112;-73
2021/12/05 04:22:47;;;;;;;26.52;10.68;;;4.40;99.90;;;;;;4997879;28;20128;-72
2021/12/05 04:25:16;;;;;;;23.63;9.85;;;4.50;99.90;;;;;;5014993;28;20050;-72
2021/12/05 04:27:44;;;;;;;27.63;10.32;;;4.40;99.90;;;;;;5014701;28;20081;-72
2021/12/05 04:30:12;;;;;;;25.02;10.23;;;4.40;99.90;;;;;;4997664;28;20046;-72
2021/12/05 04:32:38;;;;;;;28.20;11.40;;;4.30;99.90;;;;;;5014501;28;20042;-72
2021/12/05 04:35:05;;;;;;;30.60;11.93;;;4.30;99.90;;;;;;5014804;28;20141;-72
2021/12/05 04:37:31;;;;;;;25.95;12.05;;;4.30;99.90;;;;;;5014505;28;20054;-72
2021/12/05 04:39:57;;;;;;;26.67;11.00;;;4.40;99.90;;;;;;5014811;28;20492;-72
2021/12/05 04:42:23;;;;;;;25.42;10.85;;;4.30;99.90;;;;;;5014131;28;20053;-73
2021/12/05 04:44:50;;;;;;;26.10;11.13;;;4.50;99.90;;;;;;4997115;28;20066;-72
2021/12/05 04:47:16;;;;;;;24.88;11.00;;;4.40;99.90;;;;;;5014646;28;20406;-72
2021/12/05 04:49:43;;;;;;;31.17;12.10;;;4.50;99.90;;;;;;5014325;28;20057;-72
2021/12/05 04:52:10;;;;;;;30.85;10.93;;;4.40;99.90;;;;;;5014360;28;20490;-72
2021/12/05 04:54:37;;;;;;;25.30;11.07;;;4.30;99.90;;;;;;4996581;28;20494;-72
2021/12/05 04:57:03;;;;;;;26.23;12.82;;;;;;;;;;4996596;28;20494;-72
2021/12/05 04:59:34;;;;;;;25.88;11.15;;;4.30;99.90;;;;;;4996758;28;20401;-72
2021/12/05 05:01:59;;;;;;;30.27;10.95;;;4.40;99.90;;;;;;5014480;28;20046;-72
2021/12/05 05:04:29;;;;;;;27.37;11.10;;;4.30;99.90;;;;;;4996109;28;20137;-72
2021/12/05 05:07:05;;;;;;;27.88;11.52;;;4.20;99.90;;;;;;5014390;28;20081;-72
2021/12/05 05:09:31;;;;;;;24.40;10.40;;;4.20;99.90;;;;;;5013897;28;20046;-72
2021/12/05 05:11:57;;;;;;;27.33;11.43;;;4.30;99.90;;;;;;5014157;28;20478;-72
2021/12/05 05:14:23;;;;;;;27.37;10.50;;;4.10;99.90;;;;;;5013744;28;20057;-73
2021/12/05 05:16:53;;;;;;;24.63;10.65;;;4.10;99.90;;;;;;5014062;28;20325;-73
2021/12/05 05:19:24;;;;;;;31.17;11.55;;;4.10;99.90;;;;;;5014109;28;20044;-72
2021/12/05 05:22:25;;;;;;;26.08;9.82;;;4.10;99.90;;;;;;5014075;28;20132;-73
2021/12/05 05:25:05;;;;;;;24.67;10.93;;;4.00;99.90;;;;;;5012830;28;20046;-73
2021/12/05 05:27:50;;;;;;;26.73;10.18;;;4.00;99.90;;;;;;5013587;28;20054;-72
2021/12/05 05:49:23;;;;;;;27.55;8.68;;;4.10;99.90;;;;;;4996417;28;20085;-72
2021/12/05 05:51:49;;;;;;;28.38;9.88;;;4.00;99.90;;;;;;4979790;28;20042;-72
2021/12/05 05:54:15;;;;;;;20.93;9.40;;;4.10;99.90;;;;;;5012981;28;20145;-72
2021/12/05 05:56:44;;;;;;;26.20;9.38;;;;;;;;;;5013136;28;20081;-73
2021/12/05 05:59:38;;;;;;;23.73;9.75;;;;;;;;;;5013396;28;20133;-73
2021/12/05 06:04:27;;;;;;;23.90;9.50;;;4.00;99.90;;;;;;5012794;28;20100;-74
2021/12/05 06:06:53;;;;;;;23.23;9.10;;;3.90;99.90;;;;;;4996052;28;20100;-73
2021/12/05 06:09:18;;;;;;;23.03;8.93;;;3.90;99.90;;;;;;5013267;28;20461;-72
2021/12/05 06:11:44;;;;;;;22.07;8.23;;;3.90;99.90;;;;;;5013029;28;20050;-72
2021/12/05 06:14:10;;;;;;;20.43;8.50;;;3.80;99.90;;;;;;4995568;28;20056;-72
2021/12/05 06:16:35;;;;;;;25.47;9.17;;;3.80;99.90;;;;;;5012974;28;20052;-73
2021/12/05 06:19:01;;;;;;;23.20;9.37;;;3.80;99.90;;;;;;5013367;28;20088;-73
2021/12/05 06:21:27;;;;;;;28.57;9.37;;;3.80;99.90;;;;;;5013048;28;20042;-72
2021/12/05 06:23:53;;;;;;;27.20;9.20;;;3.90;99.90;;;;;;5012795;28;20050;-72
2021/12/05 06:26:23;;;;;;;20.87;9.27;;;3.90;99.90;;;;;;5013109;28;20107;-72
2021/12/05 06:29:15;;;;;;;22.85;8.98;;;3.90;99.90;;;;;;4995926;28;20267;-72
2021/12/05 06:31:54;;;;;;;27.35;9.50;;;4.00;99.90;;;;;;5012817;28;20097;-72
2021/12/05 06:42:35;;;;;;;31.85;13.15;;;4.00;99.90;;;;;;5012851;28;20136;-73
2021/12/05 06:47:47;;;;;;;32.13;20.15;;;3.90;99.90;;;;;;5012335;28;20486;-73
2021/12/05 06:50:13;;;;;;;49.78;35.28;;;3.90;99.90;;;;;;5012821;28;20053;-73
2021/12/05 06:52:38;;;;;;;53.77;36.47;;;4.00;99.90;;;;;;5012503;28;20120;-73
2021/12/05 06:55:04;;;;;;;25.93;12.83;;;4.00;99.90;;;;;;5013013;28;20049;-73
2021/12/05 06:57:30;;;;;;;31.70;14.63;;;4.00;99.90;;;;;;5012791;28;20042;-72
2021/12/05 06:59:56;;;;;;;30.67;13.20;;;4.00;99.90;;;;;;5012528;28;20133;-72
2021/12/05 07:02:23;;;;;;;27.27;13.10;;;4.00;99.90;;;;;;5012847;28;20045;-72
2021/12/05 07:05:02;;;;;;;23.08;8.45;;;4.00;99.90;;;;;;5011931;28;20062;-72
2021/12/05 07:07:31;;;;;;;23.65;10.40;;;4.00;99.90;;;;;;5016095;28;20049;-73
2021/12/05 07:09:57;;;;;;;22.08;8.75;;;4.00;99.90;;;;;;4998874;28;20065;-72
2021/12/05 07:15:11;;;;;;;18.58;6.13;;;4.00;99.90;;;;;;5016173;28;20141;-73
2021/12/05 07:23:07;;;;;;;19.27;8.32;;;4.00;99.90;;;;;;5015980;28;20141;-72
2021/12/05 07:25:46;;;;;;;20.10;8.38;;;3.90;99.90;;;;;;5016246;28;20057;-72
2021/12/05 07:42:04;;;;;;;19.58;8.90;;;4.00;99.90;;;;;;5015564;28;20050;-73
2021/12/05 07:44:30;;;;;;;20.48;9.90;;;4.10;99.90;;;;;;5016015;28;20049;-73
2021/12/05 07:46:56;;;;;;;16.45;7.57;;;4.00;99.90;;;;;;5015505;28;20053;-73
2021/12/05 07:49:23;;;;;;;25.50;8.30;;;4.10;99.90;;;;;;5015911;28;20050;-73
2021/12/05 07:51:50;;;;;;;21.45;8.00;;;4.10;99.90;;;;;;5015369;28;20470;-73
2021/12/05 07:56:50;;;;;;;22.70;8.80;;;4.10;99.90;;;;;;5015283;28;20430;-74
2021/12/05 07:59:30;;;;;;;19.52;7.82;;;4.00;99.90;;;;;;4998421;28;20057;-73
2021/12/05 08:15:46;;;;;;;17.67;7.80;;;4.00;99.90;;;;;;5015306;28;20049;-74
2021/12/05 08:18:13;;;;;;;19.88;8.15;;;4.00;99.90;;;;;;5014942;28;20052;-74
2021/12/05 08:20:41;;;;;;;21.42;8.38;;;4.00;99.90;;;;;;5014881;28;20486;-74
2021/12/05 08:23:08;;;;;;;19.83;7.95;;;4.00;99.90;;;;;;5015163;28;20057;-75
2021/12/05 08:25:38;;;;;;;23.42;8.35;;;4.00;99.90;;;;;;5015039;28;20060;-75
2021/12/05 08:30:42;;;;;;;21.33;7.95;;;4.10;99.90;;;;;;5015020;28;20061;-74
2021/12/05 08:34:01;;;;;;;18.75;8.73;;;4.10;99.90;;;;;;5015173;28;20045;-75
2021/12/05 08:41:48;;;;;;;22.50;9.50;;;4.20;99.90;;;;;;5014748;28;20097;-75
2021/12/05 10:11:24;;;;;;;27.35;10.77;;;;;;;;;;5012967;28;20242;-75
2021/12/05 10:14:10;;;;;;;17.40;9.77;;;;;;;;;;4996032;28;20093;-75
2021/12/05 10:16:57;;;;;;;19.90;10.27;;;;;;;;;;5013389;28;20057;-76
2021/12/05 10:38:38;;;;;;;20.40;10.68;;;5.20;99.90;;;;;;5015189;28;20053;-76
2021/12/05 10:42:11;;;;;;;18.73;10.07;;;;;;;;;;5034524;28;20211;-78
2021/12/05 10:43:54;;;;;;;19.05;10.20;;;;;;;;;;5029050;28;20053;-83
2021/12/05 10:46:21;;;;;;;19.65;10.27;;;;;;;;;;5036549;28;20100;-77
2021/12/05 10:48:57;;;;;;;19.50;10.10;;;;;;;;;;5036673;28;20049;-77
2021/12/05 10:51:27;;;;;;;17.15;10.15;;;;;;;;;;5036571;28;20057;-76
2021/12/05 10:53:54;;;;;;;17.08;9.15;;;;;;;;;;5036610;28;20057;-77
2021/12/05 10:56:31;;;;;;;20.17;9.50;;;;;;;;;;5018592;28;20486;-82
2021/12/05 10:59:16;;;;;;;21.60;10.38;;;;;;;;;;5036313;28;20132;-80
2021/12/05 11:01:56;;;;;;;18.02;9.85;;;;;;;;;;5036581;28;20049;-82
2021/12/05 11:04:25;;;;;;;20.80;9.48;;;;;;;;;;5015494;28;20132;-83
2021/12/05 11:06:53;;;;;;;19.15;9.30;;;;;;;;;;5016698;28;20050;-82
2021/12/05 11:09:25;;;;;;;16.83;9.52;;;;;;;;;;5016245;28;20085;-81
2021/12/05 11:12:00;;;;;;;19.13;9.38;;;;;;;;;;5016209;28;20556;-82
2021/12/05 11:14:28;;;;;;;17.40;9.63;;;;;;;;;;5016696;28;20053;-80
2021/12/05 11:17:07;;;;;;;18.38;9.57;;;;;;;;;;5016336;28;20501;-80
2021/12/05 11:19:36;;;;;;;22.58;9.82;;;;;;;;;;5016270;28;20072;-80
2021/12/05 11:22:05;;;;;;;19.23;9.75;;;;;;;;;;5015890;28;20056;-80
2021/12/05 11:24:33;;;;;;;19.55;9.32;;;;;;;;;;5016229;28;20046;-82
2021/12/05 11:27:02;;;;;;;15.40;8.88;;;;;;;;;;5016155;28;20445;-80
2021/12/05 11:29:45;;;;;;;16.13;10.95;;;;;;;;;;5014910;28;20532;-79
2021/12/05 11:32:13;;;;;;;23.02;13.85;;;;;;;;;;5013691;28;20572;-81
2021/12/05 11:34:39;;;;;;;20.98;11.70;;;;;;;;;;5006725;28;20057;-78
2021/12/05 11:37:06;;;;;;;21.13;11.02;;;;;;;;;;5007245;28;20151;-83
2021/12/05 11:39:32;;;;;;;20.63;11.35;;;;;;;;;;5016044;28;20049;-81
2021/12/05 11:41:58;;;;;;;24.08;15.43;;;;;;;;;;5015857;28;20061;-80
2021/12/05 11:44:25;;;;;;;18.35;10.45;;;;;;;;;;5015533;28;20053;-79
2021/12/05 11:46:52;;;;;;;16.55;10.40;;;5.20;99.90;;;;;;5015896;28;20112;-81
2021/12/05 11:49:24;;;;;;;19.95;10.30;;;5.20;99.90;;;;;;5015470;28;20053;-78
2021/12/05 11:51:57;;;;;;;20.40;9.85;;;5.10;99.90;;;;;;5014819;28;20501;-73
2021/12/05 11:54:27;;;;;;;18.35;10.18;;;5.10;99.90;;;;;;5015366;28;20518;-73
2021/12/05 11:56:57;;;;;;;18.83;9.38;;;5.10;99.90;;;;;;5015667;28;20058;-74
2021/12/05 11:59:39;;;;;;;16.98;9.05;;;5.10;99.90;;;;;;5013957;28;20832;-75
2021/12/05 12:02:23;;;;;;;18.15;10.57;;;5.10;99.90;;;;;;5015166;28;20046;-73
2021/12/05 12:04:57;;;;;;;16.30;9.18;;;;;;;;;;5034540;28;20139;-74
2021/12/05 12:07:53;;;;;;;14.23;9.10;;;;;;;;;;5034640;28;20921;-74
2021/12/05 12:10:28;;;;;;;18.17;10.23;;;;;;;;;;5026091;28;20057;-74
2021/12/05 12:12:54;;;;;;;18.73;10.10;;;;;;;;;;5035086;28;20037;-77
2021/12/05 12:15:22;;;;;;;14.98;8.50;;;;;;;;;;5034797;28;20060;-77
2021/12/05 12:17:50;;;;;;;14.35;9.13;;;;;;;;;;5017400;28;20128;-74
2021/12/05 12:20:21;;;;;;;19.75;10.80;;;;;;;;;;5034730;28;20056;-73
2021/12/05 12:22:47;;;;;;;16.80;8.70;;;;;;;;;;5034868;28;20045;-76
2021/12/05 12:25:16;;;;;;;16.63;10.77;;;;;;;;;;5034590;28;20064;-75
2021/12/05 12:27:43;;;;;;;16.33;9.68;;;;;;;;;;5034829;28;20041;-77
2021/12/05 12:30:10;;;;;;;17.83;8.93;;;;;;;;;;5017002;28;20042;-71
2021/12/05 12:32:38;;;;;;;16.77;7.82;;;;;;;;;;5017556;28;20049;-73
2021/12/05 12:35:09;;;;;;;16.70;9.00;;;;;;;;;;5034604;28;20056;-73
2021/12/05 12:37:54;;;;;;;13.32;8.18;;;;;;;;;;5034578;28;20084;-72
2021/12/05 12:40:32;;;;;;;13.95;7.78;;;;;;;;;;5034277;28;20057;-80
2021/12/05 12:42:58;;;;;;;18.02;9.93;;;;;;;;;;5034577;28;20042;-79
2021/12/05 12:45:24;;;;;;;15.50;7.70;;;;;;;;;;5034145;28;20053;-80
2021/12/05 12:47:56;;;;;;;19.83;10.77;;;;;;;;;;5034404;28;20453;-81
2021/12/05 12:50:25;;;;;;;15.63;9.25;;;;;;;;;;5034086;28;20076;-81
2021/12/05 12:53:11;;;;;;;16.23;8.38;;;;;;;;;;5034308;28;20085;-81
2021/12/05 12:55:38;;;;;;;13.10;8.23;;;;;;;;;;5016333;28;20058;-78
2021/12/05 12:58:07;;;;;;;15.75;8.45;;;5.60;99.90;;;;;;5034222;28;20106;-75
2021/12/05 13:00:36;;;;;;;18.98;11.07;;;5.50;99.90;;;;;;5033882;28;20049;-81
2021/12/05 13:03:14;;;;;;;17.77;11.18;;;5.40;99.90;;;;;;5033658;28;20045;-76
2021/12/05 13:11:14;;;;;;;16.98;9.07;;;5.50;99.90;;;;;;5033975;28;20045;-76
2021/12/05 13:13:43;;;;;;;19.05;8.63;;;5.60;99.90;;;;;;5034202;28;20056;-75
2021/12/05 13:16:26;;;;;;;15.50;8.30;;;5.60;99.90;;;;;;5016420;28;20049;-77
2021/12/05 13:19:06;;;;;;;20.23;9.02;;;5.70;99.90;;;;;;5033943;28;20125;-76
2021/12/05 13:21:39;;;;;;;17.45;8.75;;;5.70;99.90;;;;;;5033472;28;20465;-81
2021/12/05 13:24:42;;;;;;;13.65;8.20;;;5.70;99.90;;;;;;5033960;28;20041;-81
2021/12/05 13:27:10;;;;;;;16.45;8.25;;;5.70;99.90;;;;;;5009673;28;20107;-81
2021/12/05 13:29:47;;;;;;;16.85;6.97;;;5.70;99.90;;;;;;5033339;28;20401;-81
2021/12/05 13:32:21;;;;;;;13.82;6.45;;;5.70;99.90;;;;;;5033468;28;20049;-79
2021/12/05 13:34:50;;;;;;;14.32;7.10;;;5.70;99.90;;;;;;5033311;28;20549;-78
2021/12/05 13:37:16;;;;;;;16.48;7.68;;;5.70;99.90;;;;;;5033274;28;20049;-89
2021/12/05 13:40:03;;;;;;;16.30;9.03;;;5.70;99.90;;;;;;5033687;28;20053;-79
2021/12/05 13:42:35;;;;;;;14.48;7.07;;;5.60;99.90;;;;;;5032785;28;20508;-79
2021/12/05 13:45:04;;;;;;;16.73;7.70;;;5.60;99.90;;;;;;5033559;28;20046;-78
2021/12/05 13:47:51;;;;;;;14.23;7.25;;;5.60;99.90;;;;;;5033085;28;20080;-75
2021/12/05 13:53:03;;;;;;;17.55;11.52;;;5.60;99.90;;;;;;5033312;28;20049;-74
2021/12/05 13:56:02;;;;;;;13.75;8.10;;;5.60;99.90;;;;;;5033158;28;20049;-74
2021/12/05 13:58:45;;;;;;;16.60;8.43;;;5.60;99.90;;;;;;5015817;28;20090;-74
2021/12/05 14:01:29;;;;;;;18.63;7.93;;;5.60;99.90;;;;;;5033488;28;20053;-74
2021/12/05 14:04:09;;;;;;;16.45;9.07;;;5.60;99.90;;;;;;5032953;28;20506;-74
2021/12/05 14:06:37;;;;;;;18.38;8.57;;;5.60;99.90;;;;;;5032681;28;20505;-74
2021/12/05 14:09:14;;;;;;;13.23;8.65;;;5.60;99.90;;;;;;5033230;28;20049;-74
2021/12/05 14:11:47;;;;;;;13.02;7.97;;;5.60;99.90;;;;;;5015433;28;20045;-74
2021/12/05 14:14:15;;;;;;;11.77;7.10;;;5.60;99.90;;;;;;5032638;28;20132;-74
2021/12/05 14:16:43;;;;;;;11.63;7.20;;;5.60;99.90;;;;;;5033106;28;20140;-75
2021/12/05 14:19:13;;;;;;;11.65;6.93;;;5.60;99.90;;;;;;5033117;28;20049;-74
2021/12/05 14:21:44;;;;;;;11.80;7.25;;;5.60;99.90;;;;;;5032405;28;20437;-74
2021/12/05 14:24:12;;;;;;;16.15;7.63;;;5.60;99.90;;;;;;5015373;28;20393;-74
2021/12/05 14:26:39;;;;;;;15.93;7.65;;;5.60;99.90;;;;;;5032818;28;20064;-74
2021/12/05 14:29:12;;;;;;;16.92;7.85;;;5.60;99.90;;;;;;5033042;28;20124;-74
2021/12/05 14:31:41;;;;;;;16.60;8.13;;;5.60;99.90;;;;;;5015092;28;20099;-74
2021/12/05 14:34:09;;;;;;;16.58;8.60;;;5.50;99.90;;;;;;5033193;28;20173;-74
2021/12/05 14:37:03;;;;;;;17.25;8.25;;;5.60;99.90;;;;;;5032602;28;20049;-74
2021/12/05 14:39:48;;;;;;;14.25;7.95;;;5.60;99.90;;;;;;5015069;28;20434;-74
2021/12/05 14:42:20;;;;;;;13.30;8.93;;;5.60;99.90;;;;;;5032882;28;20083;-75
2021/12/05 14:44:52;;;;;;;15.73;8.43;;;5.60;99.90;;;;;;5015574;28;20053;-74
2021/12/05 14:47:24;;;;;;;13.00;7.63;;;5.50;99.90;;;;;;5015267;28;20050;-74
2021/12/05 14:49:56;;;;;;;20.48;8.40;;;5.60;99.90;;;;;;5032786;28;20046;-74
2021/12/05 14:52:25;;;;;;;12.27;8.45;;;5.60;99.90;;;;;;5032473;28;20053;-74
2021/12/05 14:54:52;;;;;;;13.38;9.05;;;5.50;99.90;;;;;;5032878;28;20049;-74
2021/12/05 14:57:24;;;;;;;15.63;8.32;;;5.50;99.90;;;;;;5032836;28;20050;-74
2021/12/05 14:59:58;;;;;;;14.02;8.57;;;5.50;99.90;;;;;;5032586;28;20053;-74
2021/12/05 15:02:24;;;;;;;17.27;9.45;;;5.50;99.90;;;;;;5032446;28;20160;-74
2021/12/05 15:04:52;;;;;;;16.30;9.57;;;5.50;99.90;;;;;;5033135;28;20061;-74
2021/12/05 15:07:21;;;;;;;17.00;9.82;;;5.60;99.90;;;;;;5032690;28;20041;-74
2021/12/05 15:09:50;;;;;;;17.52;9.93;;;5.60;99.90;;;;;;5015315;28;20402;-74
2021/12/05 15:12:28;;;;;;;17.63;9.95;;;5.60;99.90;;;;;;5014901;28;20057;-74
2021/12/05 15:14:56;;;;;;;19.25;9.13;;;5.60;99.90;;;;;;5032715;28;20046;-74
2021/12/05 15:17:28;;;;;;;17.50;10.25;;;5.60;99.90;;;;;;5032220;28;20128;-74
2021/12/05 15:19:58;;;;;;;17.48;8.40;;;5.60;99.90;;;;;;5032802;28;20092;-75
2021/12/05 15:22:24;;;;;;;15.95;8.45;;;5.70;99.90;;;;;;5032084;28;20046;-75
2021/12/05 15:24:55;;;;;;;13.97;8.60;;;5.60;99.90;;;;;;5032354;28;20137;-75
2021/12/05 15:27:24;;;;;;;16.75;9.15;;;5.60;99.90;;;;;;5016661;28;20553;-75
2021/12/05 15:29:55;;;;;;;19.98;9.85;;;5.50;99.90;;;;;;5036471;28;20049;-76
2021/12/05 15:32:26;;;;;;;22.17;11.00;;;5.60;99.90;;;;;;5036208;28;20048;-75
2021/12/05 15:34:55;;;;;;;16.55;10.20;;;5.60;99.90;;;;;;5036262;28;20466;-75
2021/12/05 15:37:21;;;;;;;14.88;9.45;;;5.50;99.90;;;;;;5036041;28;20079;-75
2021/12/05 15:39:50;;;;;;;20.33;10.10;;;5.60;99.90;;;;;;5035744;28;20045;-75
2021/12/05 15:42:25;;;;;;;18.67;10.63;;;5.50;99.90;;;;;;5035974;28;20450;-75
2021/12/05 15:44:52;;;;;;;;;;;5.60;99.90;;;;;;5036487;28;20202;-75
2021/12/05 15:47:21;;;;;;;14.77;9.88;;;5.50;99.90;;;;;;5035849;28;19928;-75
2021/12/05 15:50:00;;;;;;;19.73;11.50;;;5.50;99.90;;;;;;5035540;28;20084;-75
2021/12/05 15:52:41;;;;;;;16.60;10.30;;;5.50;99.90;;;;;;5035647;28;20445;-75
2021/12/05 15:55:30;;;;;;;17.88;10.60;;;5.50;99.90;;;;;;5035700;28;20057;-75
2021/12/05 15:58:12;;;;;;;17.33;11.50;;;5.50;99.90;;;;;;5006837;28;20056;-75
2021/12/05 16:00:46;;;;;;;15.13;10.95;;;5.50;99.90;;;;;;5035489;28;20448;-75
2021/12/05 16:03:16;;;;;;;16.85;11.05;;;5.50;99.90;;;;;;5017603;28;20409;-75
2021/12/05 16:05:44;;;;;;;19.15;11.23;;;5.50;99.90;;;;;;5035281;28;20053;-75
2021/12/05 16:08:15;;;;;;;19.48;11.27;;;5.50;99.90;;;;;;5035490;28;20386;-75
2021/12/05 16:10:48;;;;;;;18.15;11.43;;;5.50;99.90;;;;;;5035068;28;20053;-75
2021/12/05 16:13:20;;;;;;;19.50;11.13;;;5.50;99.90;;;;;;5035169;28;20081;-75
2021/12/05 16:15:49;;;;;;;17.25;10.35;;;5.50;99.90;;;;;;5034984;28;20504;-75
2021/12/05 16:18:17;;;;;;;22.40;12.93;;;5.50;99.90;;;;;;5035442;28;20041;-75
2021/12/05 16:21:01;;;;;;;22.08;13.65;;;5.50;99.90;;;;;;5034984;28;20128;-75
2021/12/05 16:23:32;;;;;;;18.95;11.13;;;5.40;99.90;;;;;;5035127;28;20141;-75
2021/12/05 16:26:13;;;;;;;19.65;12.38;;;5.50;99.90;;;;;;5035240;28;20049;-75
2021/12/05 16:28:41;;;;;;;14.35;10.65;;;5.40;99.90;;;;;;5017186;28;20053;-75
2021/12/05 16:31:11;;;;;;;15.75;10.82;;;5.40;99.90;;;;;;5034974;28;20437;-75
2021/12/05 16:33:37;;;;;;;19.77;12.27;;;5.40;99.90;;;;;;5034777;28;20049;-75
2021/12/05 16:36:06;;;;;;;26.30;18.15;;;5.40;99.90;;;;;;5034877;28;20107;-75
2021/12/05 16:38:51;;;;;;;32.45;21.33;;;5.40;99.90;;;;;;5034217;28;20056;-75
2021/12/05 16:41:28;;;;;;;21.67;15.55;;;5.40;99.90;;;;;;5034244;28;20386;-75
2021/12/05 16:44:03;;;;;;;36.53;20.85;;;5.40;99.90;;;;;;5016998;28;20037;-75
2021/12/05 16:46:30;;;;;;;32.22;19.15;;;5.40;99.90;;;;;;5034811;28;20045;-75
2021/12/05 16:48:58;;;;;;;29.50;19.05;;;5.40;99.90;;;;;;5034664;28;20085;-75
2021/12/05 16:51:55;;;;;;;27.42;18.85;;;5.40;99.90;;;;;;5034790;28;20124;-75
2021/12/05 16:54:53;;;;;;;34.00;22.73;;;5.40;99.90;;;;;;5029783;28;20088;-75
2021/12/05 16:57:24;;;;;;;33.50;20.67;;;5.40;99.90;;;;;;5028654;28;20405;-75
2021/12/05 16:59:52;;;;;;;27.15;18.58;;;5.40;99.90;;;;;;5016822;28;20053;-75
2021/12/05 17:02:40;;;;;;;28.73;17.65;;;5.30;99.90;;;;;;5034345;28;20049;-75
2021/12/05 17:05:16;;;;;;;27.15;19.23;;;5.40;99.90;;;;;;5034601;28;20053;-75
2021/12/05 17:08:13;;;;;;;26.17;17.08;;;5.30;99.90;;;;;;5016708;28;20127;-75
2021/12/05 17:10:44;;;;;;;26.17;17.00;;;5.30;99.90;;;;;;5034185;28;20405;-74
2021/12/05 17:13:09;;;;;;;26.65;16.40;;;5.40;99.90;;;;;;5034110;28;20041;-74
2021/12/05 17:15:43;;;;;;;27.23;18.03;;;5.40;99.90;;;;;;5033846;28;20055;-74
2021/12/05 17:18:28;;;;;;;23.05;16.33;;;5.40;99.90;;;;;;5033809;28;20100;-74
2021/12/05 17:21:05;;;;;;;28.65;17.33;;;5.40;99.90;;;;;;5033823;28;20107;-74
2021/12/05 17:23:39;;;;;;;29.50;18.67;;;5.30;99.90;;;;;;5016352;28;20099;-74
2021/12/05 17:26:10;;;;;;;27.40;18.63;;;5.30;99.90;;;;;;5033710;28;20513;-74
2021/12/05 17:28:48;;;;;;;33.83;19.35;;;5.30;99.90;;;;;;5015958;28;20046;-74
2021/12/05 17:31:15;;;;;;;34.47;20.17;;;;;;;;;;5033819;28;20516;-74
2021/12/05 17:33:52;;;;;;;31.75;22.52;;;5.40;99.90;;;;;;5033517;28;20042;-74
2021/12/05 17:36:36;;;;;;;29.17;20.02;;;5.30;99.90;;;;;;5033795;28;20045;-74
2021/12/05 17:39:13;;;;;;;32.78;22.48;;;5.30;99.90;;;;;;5033965;28;20045;-74
2021/12/05 17:41:41;;;;;;;32.47;21.45;;;5.30;99.90;;;;;;5033352;28;20489;-74
2021/12/05 17:44:09;;;;;;;34.97;22.70;;;5.30;99.90;;;;;;5033693;28;20060;-74
2021/12/05 17:46:37;;;;;;;31.05;21.52;;;5.30;99.90;;;;;;5033594;28;20464;-74
2021/12/05 17:49:06;;;;;;;37.63;21.92;;;5.30;99.90;;;;;;5015709;28;20064;-74
2021/12/05 17:51:37;;;;;;;33.45;24.05;;;5.30;99.90;;;;;;5032981;28;20500;-74
2021/12/05 17:54:05;;;;;;;31.90;22.85;;;5.20;99.90;;;;;;5033963;28;20496;-74
2021/12/05 17:59:13;;;;;;;34.67;22.77;;;5.20;99.90;;;;;;5033078;28;20525;-74
2021/12/05 18:04:26;;;;;;;34.50;24.45;;;5.10;99.90;;;;;;5033625;28;20127;-74
2021/12/05 18:06:52;;;;;;;40.95;26.60;;;5.10;99.90;;;;;;5032728;28;20489;-74
2021/12/05 18:09:17;;;;;;;43.33;27.07;;;5.20;99.90;;;;;;5033242;28;20136;-74
2021/12/05 18:11:44;;;;;;;39.90;28.00;;;5.10;99.90;;;;;;5015352;28;20056;-74
2021/12/05 18:14:10;;;;;;;39.38;28.35;;;5.10;99.90;;;;;;5033340;28;20075;-74
2021/12/05 18:16:36;;;;;;;42.15;28.48;;;5.10;99.90;;;;;;5015794;28;20084;-74
2021/12/05 18:19:05;;;;;;;42.30;26.87;;;5.10;99.90;;;;;;5032893;28;20045;-74
2021/12/05 18:21:31;;;;;;;39.95;26.15;;;5.10;99.90;;;;;;5015607;28;20421;-74
2021/12/05 18:23:57;;;;;;;39.50;26.92;;;5.10;99.90;;;;;;5032702;28;20048;-74
2021/12/05 18:26:25;;;;;;;43.03;29.07;;;5.20;99.90;;;;;;5032913;28;20057;-74
2021/12/05 18:28:52;;;;;;;40.95;27.27;;;5.10;99.90;;;;;;5032785;28;20276;-74
2021/12/05 18:31:23;;;;;;;40.40;27.67;;;5.10;99.90;;;;;;4998960;28;20045;-74
2021/12/05 18:33:54;;;;;;;39.70;27.88;;;5.10;99.90;;;;;;5032741;28;20050;-74
2021/12/05 18:36:21;;;;;;;40.67;26.85;;;5.10;99.90;;;;;;5032966;28;20489;-74
2021/12/05 18:38:47;;;;;;;41.85;27.40;;;;;;;;;;5032826;28;20334;-74
2021/12/05 18:41:15;;;;;;;45.17;31.05;;;;;;;;;;5015463;28;20123;-74
2021/12/05 18:43:42;;;;;;;43.28;29.98;;;5.10;99.90;;;;;;5032910;28;20081;-74